Time;durP1;ratioP1;P1;durP2;ratioP2;P2;SDS_P1;SDS_P2;PMS_P1;PMS_P2;Temp;Humidity;BMP_temperature;BMP_pressure;BME280_temperature;BME280_humidity;BME280_pressure;Samples;Min_cycle;Max_cycle;Signal;HPM_P1;HPM_P2
2020/12/22 00:01:13;;;;;;;7.13;6.13;;;;;;;;;;4961771;28;20188;-69
2020/12/22 00:03:38;;;;;;;6.63;5.90;;;;;;;;;;4957598;28;20303;-70
2020/12/22 00:06:03;;;;;;;7.03;6.25;;;;;;;;;;4957477;28;20211;-70
2020/12/22 00:08:28;;;;;;;6.88;6.18;;;;;;;;;;4956574;28;20942;-70
2020/12/22 00:10:54;;;;;;;7.60;6.80;;;;;;;;;;4963100;28;20199;-70
2020/12/22 00:13:19;;;;;;;7.80;6.90;;;;;;;;;;4969561;28;20235;-70
2020/12/22 00:15:44;;;;;;;7.07;6.38;;;;;;;;;;4968052;28;20658;-70
2020/12/22 00:18:10;;;;;;;7.40;6.67;;;;;;;;;;4982124;28;20176;-69
2020/12/22 00:20:36;;;;;;;7.53;6.75;;;;;;;;;;4965655;28;20428;-70
2020/12/22 00:23:01;;;;;;;11.63;7.50;;;;;;;;;;4971832;28;20729;-69
2020/12/22 00:25:26;;;;;;;8.45;6.60;;;;;;;;;;4967232;28;20196;-69
2020/12/22 00:27:51;;;;;;;8.88;7.28;;;;;;;;;;4965090;28;20234;-69
2020/12/22 00:30:16;;;;;;;9.73;6.50;;;;;;;;;;4969879;28;20188;-71
2020/12/22 00:32:41;;;;;;;7.00;6.22;;;;;;;;;;4966637;28;20214;-68
2020/12/22 00:35:07;;;;;;;6.47;5.63;;;;;;;;;;4962835;28;20211;-70
2020/12/22 00:37:32;;;;;;;6.90;5.65;;;;;;;;;;4961854;28;20200;-70
2020/12/22 00:39:57;;;;;;;6.57;5.68;;;;;;;;;;4963402;28;20231;-70
2020/12/22 00:42:22;;;;;;;7.75;5.97;;;;;;;;;;4969368;28;20250;-69
2020/12/22 00:44:47;;;;;;;7.10;5.75;;;;;;;;;;4968145;28;20192;-70
2020/12/22 00:47:12;;;;;;;7.10;6.40;;;;;;;;;;4969628;28;20234;-70
2020/12/22 00:49:38;;;;;;;6.32;5.47;;;;;;;;;;4971907;28;20187;-70
2020/12/22 00:52:03;;;;;;;6.32;5.65;;;;;;;;;;4973093;28;20216;-68
2020/12/22 00:54:28;;;;;;;6.93;6.20;;;;;;;;;;4970865;28;20207;-69
2020/12/22 00:56:53;;;;;;;8.88;6.13;;;;;;;;;;4969714;28;20307;-70
2020/12/22 00:59:18;;;;;;;6.43;5.10;;;;;;;;;;4968719;28;20621;-70
2020/12/22 01:01:44;;;;;;;5.15;4.65;;;;;;;;;;4969819;28;20175;-70
2020/12/22 01:04:09;;;;;;;5.32;4.70;;;;;;;;;;4971380;28;20231;-70
2020/12/22 01:06:38;;;;;;;4.70;4.30;;;;;;;;;;4970079;28;20195;-69
2020/12/22 01:09:04;;;;;;;4.18;3.60;;;;;;;;;;4983785;28;20184;-69
2020/12/22 01:11:36;;;;;;;3.38;2.90;;;;;;;;;;4969885;28;20180;-70
2020/12/22 01:14:01;;;;;;;4.30;3.10;;;;;;;;;;4970713;28;20286;-71
2020/12/22 01:16:26;;;;;;;3.42;2.95;;;;;;;;;;4966836;28;20215;-70
2020/12/22 01:18:51;;;;;;;2.55;2.22;;;;;;;;;;4968884;28;20172;-70
2020/12/22 01:21:18;;;;;;;3.20;2.25;;;;;;;;;;4970372;28;20668;-69
2020/12/22 01:23:43;;;;;;;3.75;2.45;;;;;;;;;;4968956;28;20556;-70
2020/12/22 01:26:08;;;;;;;2.57;2.20;;;;;;;;;;4970403;28;20200;-70
2020/12/22 01:28:33;;;;;;;2.53;2.00;;;;;;;;;;4969986;28;20429;-70
2020/12/22 01:30:58;;;;;;;3.60;2.38;;;;;;;;;;4972150;28;20181;-71
2020/12/22 01:33:24;;;;;;;4.13;2.50;;;;;;;;;;4969622;28;20537;-69
2020/12/22 01:35:49;;;;;;;3.70;2.70;;;;;;;;;;4970351;28;20458;-70
2020/12/22 01:38:14;;;;;;;3.63;3.30;;;;;;;;;;4970339;28;20259;-70
2020/12/22 01:40:46;;;;;;;4.65;3.28;;;;;;;;;;4983576;28;20941;-71
2020/12/22 01:43:12;;;;;;;5.20;3.30;;;;;;;;;;4969875;28;20204;-71
2020/12/22 01:45:37;;;;;;;3.22;2.75;;;;;;;;;;4968727;28;20446;-70
2020/12/22 01:48:02;;;;;;;3.38;3.03;;;;;;;;;;4970936;28;20264;-70
2020/12/22 01:50:27;;;;;;;3.13;2.75;;;;;;;;;;4973088;28;20180;-70
2020/12/22 01:52:52;;;;;;;3.13;2.50;;;;;;;;;;4973133;28;20578;-70
2020/12/22 01:55:17;;;;;;;3.92;2.50;;;;;;;;;;4973809;28;20695;-70
2020/12/22 01:57:43;;;;;;;4.03;2.45;;;;;;;;;;4973714;28;20176;-69
2020/12/22 02:00:08;;;;;;;2.55;2.35;;;;;;;;;;4974360;28;20693;-70
2020/12/22 02:02:33;;;;;;;2.33;2.13;;;;;;;;;;4973235;28;20219;-72
2020/12/22 02:05:00;;;;;;;3.97;2.30;;;;;;;;;;4972339;28;20184;-71
2020/12/22 02:07:25;;;;;;;3.15;2.40;;;;;;;;;;4974481;28;20181;-70
2020/12/22 02:09:50;;;;;;;2.88;2.60;;;;;;;;;;4983830;28;20188;-69
2020/12/22 02:12:16;;;;;;;4.18;2.70;;;;;;;;;;4973069;28;20207;-71
2020/12/22 02:14:41;;;;;;;2.95;2.65;;;;;;;;;;4973512;28;20204;-70
2020/12/22 02:17:07;;;;;;;3.90;3.15;;;;;;;;;;4972495;28;20204;-70
2020/12/22 02:19:32;;;;;;;3.10;2.85;;;;;;;;;;4970857;28;20580;-70
2020/12/22 02:21:57;;;;;;;3.17;2.88;;;;;;;;;;4969632;28;20199;-70
2020/12/22 02:24:22;;;;;;;3.55;2.53;;;;;;;;;;4971569;28;20192;-70
2020/12/22 02:26:47;;;;;;;3.72;2.58;;;;;;;;;;4973481;28;20180;-71
2020/12/22 02:29:12;;;;;;;2.30;2.03;;;;;;;;;;4988977;28;20283;-70
2020/12/22 02:31:38;;;;;;;2.00;1.77;;;;;;;;;;4973710;28;20625;-70
2020/12/22 02:34:03;;;;;;;1.88;1.77;;;;;;;;;;4970692;28;20721;-70
2020/12/22 02:36:28;;;;;;;1.92;1.83;;;;;;;;;;4972269;28;20176;-70
2020/12/22 02:38:53;;;;;;;2.45;1.77;;;;;;;;;;4972962;28;20722;-70
2020/12/22 02:41:19;;;;;;;2.10;1.40;;;;;;;;;;4972943;28;20180;-71
2020/12/22 02:43:44;;;;;;;1.70;1.60;;;;;;;;;;4974694;28;20202;-70
2020/12/22 02:46:09;;;;;;;4.95;2.15;;;;;;;;;;4986717;28;20250;-71
2020/12/22 02:48:35;;;;;;;1.83;1.73;;;;;;;;;;4972528;28;20184;-72
2020/12/22 02:51:00;;;;;;;4.53;1.70;;;;;;;;;;4973539;28;20212;-71
2020/12/22 02:53:26;;;;;;;2.92;1.55;;;;;;;;;;4967219;28;20291;-70
2020/12/22 02:55:52;;;;;;;1.67;1.33;;;;;;;;;;4971551;28;20474;-70
2020/12/22 02:58:17;;;;;;;1.90;1.75;;;;;;;;;;4965227;28;20239;-71
2020/12/22 03:00:42;;;;;;;2.95;1.50;;;;;;;;;;4965052;28;20264;-70
2020/12/22 03:03:07;;;;;;;2.50;1.40;;;;;;;;;;4970117;28;20216;-70
2020/12/22 03:05:33;;;;;;;2.33;1.60;;;;;;;;;;4972817;28;20603;-70
2020/12/22 03:07:58;;;;;;;2.42;2.05;;;;;;;;;;4971585;28;20212;-71
2020/12/22 03:10:23;;;;;;;4.03;2.20;;;;;;;;;;4973491;28;20184;-71
2020/12/22 03:12:48;;;;;;;4.55;2.00;;;;;;;;;;4972786;28;20207;-71
2020/12/22 03:15:14;;;;;;;6.10;2.38;;;;;;;;;;4973466;28;20669;-70
2020/12/22 03:17:39;;;;;;;5.22;2.17;;;;;;;;;;4969906;28;20649;-71
2020/12/22 03:20:06;;;;;;;4.07;2.08;;;;;;;;;;4972955;28;20552;-70
2020/12/22 03:22:31;;;;;;;5.18;2.10;;;;;;;;;;4972237;28;20211;-70
2020/12/22 03:24:56;;;;;;;7.80;2.40;;;;;;;;;;4971703;28;20652;-71
2020/12/22 03:27:22;;;;;;;2.63;2.40;;;;;;;;;;4973479;28;20184;-71
2020/12/22 03:29:47;;;;;;;3.25;1.90;;;;;;;;;;4973339;28;20616;-71
2020/12/22 03:32:12;;;;;;;3.45;2.47;;;;;;;;;;4973538;28;20207;-69
2020/12/22 03:34:37;;;;;;;5.18;2.90;;;;;;;;;;4972239;28;20583;-71
2020/12/22 03:37:02;;;;;;;5.28;2.95;;;;;;;;;;4988896;28;20649;-69
2020/12/22 03:39:28;;;;;;;5.53;2.50;;;;;;;;;;4987745;28;20178;-70
2020/12/22 03:41:53;;;;;;;7.60;2.75;;;;;;;;;;4974256;28;20255;-70
2020/12/22 03:44:18;;;;;;;2.97;2.22;;;;;;;;;;4973097;28;20181;-71
2020/12/22 03:46:47;;;;;;;2.97;2.40;;;;;;;;;;4969410;28;20184;-71
2020/12/22 03:49:12;;;;;;;7.22;2.88;;;;;;;;;;4973020;28;20180;-70
2020/12/22 03:51:37;;;;;;;9.18;3.42;;;;;;;;;;4966714;28;20203;-69
2020/12/22 03:54:02;;;;;;;8.70;3.03;;;;;;;;;;4967584;28;20267;-71
2020/12/22 03:56:28;;;;;;;5.13;2.63;;;;;;;;;;4969662;28;20933;-70
2020/12/22 03:58:53;;;;;;;7.93;2.88;;;;;;;;;;4972660;28;20430;-70
2020/12/22 04:01:18;;;;;;;6.95;2.42;;;;;;;;;;4972471;28;20713;-70
2020/12/22 04:03:43;;;;;;;5.55;2.28;;;;;;;;;;4971532;28;20216;-71
2020/12/22 04:06:09;;;;;;;8.43;2.10;;;;;;;;;;4971467;28;20184;-71
2020/12/22 04:08:34;;;;;;;6.45;2.08;;;;;;;;;;4971437;28;20234;-70
2020/12/22 04:11:00;;;;;;;5.78;2.08;;;;;;;;;;4972742;28;20184;-71
2020/12/22 04:13:25;;;;;;;4.53;2.00;;;;;;;;;;4970706;28;20594;-71
2020/12/22 04:15:50;;;;;;;6.07;1.90;;;;;;;;;;4970310;28;20204;-72
2020/12/22 04:18:15;;;;;;;6.10;1.67;;;;;;;;;;4968851;28;20676;-72
2020/12/22 04:20:40;;;;;;;6.00;1.87;;;;;;;;;;4967139;28;20175;-71
2020/12/22 04:23:06;;;;;;;10.85;3.58;;;;;;;;;;4971541;28;21013;-71
2020/12/22 04:25:31;;;;;;;8.38;2.05;;;;;;;;;;4970785;28;20721;-71
2020/12/22 04:27:56;;;;;;;4.22;2.45;;;;;;;;;;4972411;28;20188;-71
2020/12/22 04:30:21;;;;;;;8.32;1.65;;;;;;;;;;4985388;28;20180;-70
2020/12/22 04:32:46;;;;;;;6.78;2.08;;;;;;;;;;4972374;28;20218;-71
2020/12/22 04:35:11;;;;;;;6.15;2.63;;;;;;;;;;4970742;28;20299;-70
2020/12/22 04:37:37;;;;;;;6.38;1.50;;;;;;;;;;4970990;28;20180;-70
2020/12/22 04:40:03;;;;;;;4.82;2.20;;;;;;;;;;4972941;28;20714;-71
2020/12/22 04:42:29;;;;;;;5.38;1.60;;;;;;;;;;4986371;28;20219;-71
2020/12/22 04:44:54;;;;;;;6.30;1.50;;;;;;;;;;4969735;28;20555;-71
2020/12/22 04:47:20;;;;;;;6.60;2.28;;;;;;;;;;4970072;28;20275;-71
2020/12/22 04:49:50;;;;;;;5.00;1.50;;;;;;;;;;4971909;28;20304;-71
2020/12/22 04:52:17;;;;;;;5.10;2.40;;;;;;;;;;4969923;28;20693;-71
2020/12/22 04:54:42;;;;;;;7.32;1.35;;;;;;;;;;4971221;28;20380;-71
2020/12/22 04:57:07;;;;;;;5.97;1.25;;;;;;;;;;4970457;28;20185;-71
2020/12/22 04:59:33;;;;;;;3.17;1.65;;;;;;;;;;4971715;28;20239;-71
2020/12/22 05:01:59;;;;;;;2.92;1.52;;;;;;;;;;4970812;28;20263;-71
2020/12/22 05:04:31;;;;;;;4.95;1.10;;;;;;;;;;4969419;28;20218;-71
2020/12/22 05:06:56;;;;;;;4.25;1.52;;;;;;;;;;4970956;28;20187;-71
2020/12/22 05:09:21;;;;;;;6.23;1.70;;;;;;;;;;4971602;28;20192;-71
2020/12/22 05:11:47;;;;;;;6.97;1.05;;;;;;;;;;4970964;28;20438;-71
2020/12/22 05:14:12;;;;;;;7.27;1.33;;;;;;;;;;4984463;28;20697;-71
2020/12/22 05:16:37;;;;;;;10.50;1.73;;;;;;;;;;4969314;28;20429;-71
2020/12/22 05:19:03;;;;;;;3.72;1.40;;;;;;;;;;4969977;28;20164;-71
2020/12/22 05:21:34;;;;;;;5.70;1.88;;;;;;;;;;4969198;28;20235;-71
2020/12/22 05:24:00;;;;;;;8.95;3.30;;;;;;;;;;4973867;28;20196;-71
2020/12/22 05:26:25;;;;;;;7.97;2.72;;;;;;;;;;4974708;28;20184;-71
2020/12/22 05:28:50;;;;;;;12.32;1.85;;;;;;;;;;4991255;28;20168;-71
2020/12/22 05:31:16;;;;;;;8.60;1.88;;;;;;;;;;4974592;28;20180;-71
2020/12/22 05:33:45;;;;;;;12.20;2.33;;;;;;;;;;4990231;28;20551;-71
2020/12/22 05:36:11;;;;;;;8.77;1.77;;;;;;;;;;4973579;28;20590;-71
2020/12/22 05:38:37;;;;;;;13.05;3.03;;;;;;;;;;4973190;28;20187;-72
2020/12/22 05:41:04;;;;;;;7.88;1.58;;;;;;;;;;4972478;28;20231;-71
2020/12/22 05:43:36;;;;;;;3.70;1.48;;;;;;;;;;4972128;28;20862;-71
2020/12/22 05:46:01;;;;;;;11.70;4.07;;;;;;;;;;4973395;28;20654;-71
2020/12/22 05:48:26;;;;;;;5.47;2.00;;;;;;;;;;4989261;28;20216;-71
2020/12/22 05:50:54;;;;;;;7.10;2.30;;;;;;;;;;4970912;28;20238;-71
2020/12/22 05:53:23;;;;;;;10.82;1.55;;;;;;;;;;4972096;28;20208;-71
2020/12/22 05:55:48;;;;;;;7.45;1.70;;;;;;;;;;4987468;28;20212;-71
2020/12/22 05:58:13;;;;;;;5.82;1.83;;;;;;;;;;4973882;28;20242;-72
2020/12/22 06:00:39;;;;;;;5.47;1.52;;;;;;;;;;4972928;28;20213;-71
2020/12/22 06:03:09;;;;;;;5.63;1.95;;;;;;;;;;4967094;28;20285;-71
2020/12/22 06:05:44;;;;;;;7.00;1.88;;;;;;;;;;4982418;28;20211;-71
2020/12/22 06:08:10;;;;;;;8.30;1.80;;;;;;;;;;4972867;28;20198;-71
2020/12/22 06:10:36;;;;;;;7.85;1.77;;;;;;;;;;4974096;28;20188;-71
2020/12/22 06:13:02;;;;;;;5.93;1.70;;;;;;;;;;4973413;28;20232;-71
2020/12/22 06:15:27;;;;;;;5.78;1.80;;;;;;;;;;4974001;28;20244;-70
2020/12/22 06:17:53;;;;;;;6.82;1.90;;;;;;;;;;4973755;28;20633;-71
2020/12/22 06:20:20;;;;;;;8.50;1.83;;;;;;;;;;4986767;28;20215;-70
2020/12/22 06:22:45;;;;;;;12.13;3.00;;;;;;;;;;4970369;28;20208;-71
2020/12/22 06:25:11;;;;;;;10.05;2.58;;;;;;;;;;4972227;28;20554;-71
2020/12/22 06:27:36;;;;;;;9.73;1.53;;;;;;;;;;4973216;28;20211;-70
2020/12/22 06:30:01;;;;;;;6.72;1.80;;;;;;;;;;4972702;28;20646;-70
2020/12/22 06:32:27;;;;;;;5.57;1.30;;;;;;;;;;4973453;28;20262;-71
2020/12/22 06:34:52;;;;;;;10.02;1.33;;;;;;;;;;4969054;28;20311;-71
2020/12/22 06:37:21;;;;;;;9.65;2.28;;;;;;;;;;4972442;28;20697;-71
2020/12/22 06:39:48;;;;;;;6.07;1.92;;;;;;;;;;4969237;28;20199;-71
2020/12/22 06:42:37;;;;;;;3.92;1.65;;;;;;;;;;4968769;28;20205;-70
2020/12/22 06:45:21;;;;;;;6.07;1.70;;;;;;;;;;4959851;28;20199;-71
2020/12/22 06:47:46;;;;;;;6.78;1.70;;;;;;;;;;4972322;28;20235;-71
2020/12/22 06:50:11;;;;;;;8.40;1.75;;;;;;;;;;4969764;28;20204;-71
2020/12/22 06:52:37;;;;;;;6.87;2.17;;;;;;;;;;4971447;28;20212;-71
2020/12/22 06:55:04;;;;;;;12.45;3.28;;;;;;;;;;4969116;28;20215;-71
2020/12/22 06:57:39;;;;;;;13.48;1.60;;;;;;;;;;4973769;28;20183;-71
2020/12/22 07:00:04;;;;;;;12.67;2.23;;;;;;;;;;4973570;28;20179;-70
2020/12/22 07:02:31;;;;;;;12.10;2.37;;;;;;;;;;4970487;28;20258;-71
2020/12/22 07:04:57;;;;;;;6.40;1.58;;;;;;;;;;4969476;28;20603;-71
2020/12/22 07:07:22;;;;;;;9.05;2.78;;;;;;;;;;4969929;28;20180;-71
2020/12/22 07:09:47;;;;;;;8.73;1.73;;;;;;;;;;4974221;28;20172;-71
2020/12/22 07:12:15;;;;;;;8.55;1.85;;;;;;;;;;4985026;28;20207;-71
2020/12/22 07:14:47;;;;;;;11.50;2.05;;;;;;;;;;4972845;28;20685;-71
2020/12/22 07:17:13;;;;;;;7.60;1.90;;;;;;;;;;4968183;28;20231;-71
2020/12/22 07:19:42;;;;;;;9.93;1.70;;;;;;;;;;4974128;28;20184;-71
2020/12/22 07:22:07;;;;;;;6.07;1.33;;;;;;;;;;4971683;28;20245;-71
2020/12/22 07:24:33;;;;;;;9.07;1.70;;;;;;;;;;4971798;28;20211;-71
2020/12/22 07:26:58;;;;;;;8.23;1.48;;;;;;;;;;4971339;28;20191;-71
2020/12/22 07:29:24;;;;;;;10.90;1.80;;;;;;;;;;4972420;28;20180;-71
2020/12/22 07:31:49;;;;;;;5.68;1.65;;;;;;;;;;4972970;28;20180;-71
2020/12/22 07:34:14;;;;;;;8.57;1.80;;;;;;;;;;4970936;28;20682;-70
2020/12/22 07:36:40;;;;;;;7.40;1.38;;;;;;;;;;4973020;28;20172;-70
2020/12/22 07:39:09;;;;;;;8.33;1.50;;;;;;;;;;4970182;28;20188;-70
2020/12/22 07:41:34;;;;;;;9.57;2.23;;;;;;;;;;4970556;28;20180;-70
2020/12/22 07:44:06;;;;;;;11.57;1.97;;;;;;;;;;4972972;28;20712;-70
2020/12/22 07:46:31;;;;;;;9.17;1.83;;;;;;;;;;4971437;28;20212;-70
2020/12/22 07:48:56;;;;;;;11.27;2.50;;;;;;;;;;4970580;28;21349;-70
2020/12/22 07:51:22;;;;;;;10.73;2.63;;;;;;;;;;4970214;28;20669;-70
2020/12/22 07:53:47;;;;;;;12.40;2.20;;;;;;;;;;4970603;28;20204;-70
2020/12/22 07:56:12;;;;;;;11.67;3.20;;;;;;;;;;4972114;28;20655;-70
2020/12/22 07:58:37;;;;;;;16.95;2.38;;;;;;;;;;4963738;28;20184;-69
2020/12/22 08:01:03;;;;;;;12.10;3.40;;;;;;;;;;4962625;28;20180;-70
2020/12/22 08:03:28;;;;;;;11.20;2.70;;;;;;;;;;4971783;28;20560;-70
2020/12/22 08:06:00;;;;;;;9.80;2.23;;;;;;;;;;4972826;28;20211;-70
2020/12/22 08:08:25;;;;;;;17.07;3.17;;;;;;;;;;4969720;28;20235;-70
2020/12/22 08:10:50;;;;;;;12.80;3.20;;;;;;;;;;4970709;28;20173;-70
2020/12/22 08:13:16;;;;;;;12.02;2.72;;;;;;;;;;4968271;28;20196;-70
2020/12/22 08:15:41;;;;;;;13.93;3.43;;;;;;;;;;4970352;28;20700;-70
2020/12/22 08:18:07;;;;;;;17.07;3.70;;;;;;;;;;4971051;28;20253;-71
2020/12/22 08:20:33;;;;;;;12.23;2.80;;;;;;;;;;4980028;28;20193;-71
2020/12/22 08:23:00;;;;;;;14.57;3.50;;;;;;;;;;4953792;28;20339;-71
2020/12/22 08:25:26;;;;;;;17.87;3.70;;;;;;;;;;4953832;28;20188;-71
2020/12/22 08:27:54;;;;;;;15.25;3.42;;;;;;;;;;4969604;28;20255;-71
2020/12/22 08:30:20;;;;;;;13.77;2.83;;;;;;;;;;4952825;28;20212;-71
2020/12/22 08:32:45;;;;;;;13.87;3.10;;;;;;;;;;4965613;28;20192;-71
2020/12/22 08:35:11;;;;;;;14.77;3.67;;;;;;;;;;4972412;28;20282;-71
2020/12/22 08:37:36;;;;;;;14.70;3.00;;;;;;;;;;4959948;28;20613;-71
2020/12/22 08:40:03;;;;;;;19.92;3.60;;;;;;;;;;4956586;28;20256;-71
2020/12/22 08:42:29;;;;;;;11.30;2.83;;;;;;;;;;4958220;28;20220;-71
2020/12/22 08:44:54;;;;;;;15.73;3.03;;;;;;;;;;4957123;28;20365;-70
2020/12/22 08:47:20;;;;;;;17.67;3.93;;;;;;;;;;4957596;28;20218;-71
2020/12/22 08:49:46;;;;;;;13.90;3.37;;;;;;;;;;4968760;28;20656;-71
2020/12/22 08:52:12;;;;;;;16.37;3.57;;;;;;;;;;4958600;28;20299;-71
2020/12/22 08:54:37;;;;;;;17.10;3.73;;;;;;;;;;4955787;28;20258;-71
2020/12/22 08:57:09;;;;;;;37.73;5.07;;;;;;;;;;4955248;28;20724;-72
2020/12/22 08:59:34;;;;;;;14.70;3.40;;;;;;;;;;4956910;28;20181;-72
2020/12/22 09:02:00;;;;;;;17.13;3.63;;;;;;;;;;4953458;28;20202;-72
2020/12/22 09:04:29;;;;;;;14.07;3.30;;;;;;;;;;4962628;28;20262;-71
2020/12/22 09:06:54;;;;;;;16.67;3.70;;;;;;;;;;4963708;28;20206;-71
2020/12/22 09:09:27;;;;;;;19.03;5.57;;;;;;;;;;4959170;28;20199;-71
2020/12/22 09:12:01;;;;;;;20.97;4.03;;;;;;;;;;4952859;28;20184;-71
2020/12/22 09:14:36;;;;;;;15.57;3.70;;;;;;;;;;4954187;28;20218;-71
2020/12/22 09:17:01;;;;;;;19.07;3.80;;;;;;;;;;4955446;28;20180;-71
2020/12/22 09:19:39;;;;;;;21.40;3.80;;;;;;;;;;4958937;28;20568;-71
2020/12/22 09:22:04;;;;;;;14.30;3.43;;;;;;;;;;4955517;28;20243;-70
2020/12/22 09:24:31;;;;;;;17.07;4.77;;;;;;;;;;4953033;28;20271;-70
2020/12/22 09:26:59;;;;;;;23.37;3.77;;;;;;;;;;4954632;28;20230;-70
2020/12/22 09:29:25;;;;;;;21.97;4.30;;;;;;;;;;4953881;28;20192;-70
2020/12/22 09:31:51;;;;;;;17.93;3.80;;;;;;;;;;4958501;28;20215;-70
2020/12/22 09:34:16;;;;;;;25.30;6.27;;;;;;;;;;4970524;28;20314;-70
2020/12/22 09:36:42;;;;;;;20.53;3.73;;;;;;;;;;4954110;28;20272;-70
2020/12/22 09:39:07;;;;;;;19.63;4.33;;;;;;;;;;4953066;28;20583;-71
2020/12/22 09:41:39;;;;;;;20.03;4.77;;;;;;;;;;4955313;28;20188;-71
2020/12/22 09:44:04;;;;;;;23.23;6.40;;;;;;;;;;4956481;28;20212;-71
2020/12/22 09:46:29;;;;;;;21.27;5.13;;;;;;;;;;4952493;28;20680;-71
2020/12/22 09:48:54;;;;;;;15.37;2.90;;;;;;;;;;4954185;28;20184;-72
2020/12/22 09:51:20;;;;;;;14.77;2.77;;;;;;;;;;4954028;28;20184;-71
2020/12/22 09:53:45;;;;;;;16.03;2.50;;;;;;;;;;4954717;28;20255;-71
2020/12/22 09:56:10;;;;;;;16.27;2.77;;;;;;;;;;4953641;28;20343;-71
2020/12/22 09:58:36;;;;;;;9.00;1.80;;;;;;;;;;4952794;28;20180;-71
2020/12/22 10:01:01;;;;;;;7.47;2.57;;;;;;;;;;4954648;28;20215;-71
2020/12/22 10:03:26;;;;;;;11.30;2.70;;;;;;;;;;4961162;23;20237;-75
2020/12/22 10:05:51;;;;;;;9.23;1.93;;;;;;;;;;4933290;28;20224;-75
2020/12/22 10:08:16;;;;;;;8.27;1.63;;;;;;;;;;4933306;28;20971;-73
2020/12/22 10:10:41;;;;;;;7.83;1.63;;;;;;;;;;4937130;28;20196;-75
2020/12/22 10:13:07;;;;;;;6.77;1.70;;;;;;;;;;4936528;28;20215;-74
2020/12/22 10:15:32;;;;;;;7.83;2.00;;;;;;;;;;4943449;28;20308;-74
2020/12/22 10:17:57;;;;;;;6.23;2.20;;;;;;;;;;4937192;28;20188;-74
2020/12/22 10:20:22;;;;;;;10.10;1.90;;;;;;;;;;4944480;28;20466;-73
2020/12/22 10:22:47;;;;;;;6.17;2.40;;;;;;;;;;4936211;28;20204;-73
2020/12/22 10:25:13;;;;;;;9.00;2.60;;;;;;;;;;4935706;28;20184;-74
2020/12/22 10:27:38;;;;;;;10.50;2.07;;;;;;;;;;4936610;28;20197;-74
2020/12/22 10:30:04;;;;;;;5.57;2.47;;;;;;;;;;4937401;28;20197;-74
2020/12/22 10:32:29;;;;;;;6.90;2.30;;;;;;;;;;4936316;28;20215;-74
2020/12/22 10:34:54;;;;;;;9.90;3.10;;;;;;;;;;4936311;28;20219;-74
2020/12/22 10:37:21;;;;;;;4.17;2.13;;;;;;;;;;4935984;28;20209;-74
2020/12/22 10:39:49;;;;;;;7.33;2.30;;;;;;;;;;4931575;28;20435;-74
2020/12/22 10:42:14;;;;;;;8.03;3.20;;;;;;;;;;4938895;28;20297;-74
2020/12/22 10:44:39;;;;;;;9.70;3.90;;;;;;;;;;4936387;28;20193;-74
2020/12/22 10:47:04;;;;;;;7.60;3.90;;;;;;;;;;4934685;28;20181;-74
2020/12/22 10:49:29;;;;;;;13.20;4.67;;;;;;;;;;4935012;28;20312;-74
2020/12/22 10:51:55;;;;;;;8.07;4.73;;;;;;;;;;4941006;28;20189;-74
2020/12/22 10:54:20;;;;;;;10.03;4.93;;;;;;;;;;4935224;28;20193;-74
2020/12/22 10:56:45;;;;;;;11.93;5.10;;;;;;;;;;4935545;28;20252;-75
2020/12/22 10:59:10;;;;;;;14.03;6.03;;;;;;;;;;4937645;28;20181;-74
2020/12/22 11:01:37;;;;;;;10.80;5.43;;;;;;;;;;4936177;28;20203;-74
2020/12/22 11:04:02;;;;;;;11.83;5.17;;;;;;;;;;4949641;29;20217;-74
2020/12/22 11:06:55;;;;;;;11.30;5.47;;;;;;;;;;4935580;28;20181;-74
2020/12/22 11:09:13;;;;;;;11.30;5.60;;;;;;;;;;4935418;28;20208;-74
2020/12/22 11:11:42;;;;;;;7.67;4.73;;;;;;;;;;4936085;28;20185;-74
2020/12/22 11:14:07;;;;;;;10.97;5.10;;;;;;;;;;4936067;28;20249;-74
2020/12/22 11:16:32;;;;;;;13.70;4.83;;;;;;;;;;4943170;28;20220;-74
2020/12/22 11:18:57;;;;;;;14.10;6.47;;;;;;;;;;4936982;28;20304;-74
2020/12/22 11:21:24;;;;;;;12.97;6.37;;;;;;;;;;4942336;28;20233;-74
2020/12/22 11:23:50;;;;;;;11.47;5.50;;;;;;;;;;4948948;28;20212;-74
2020/12/22 11:26:16;;;;;;;12.47;6.00;;;;;;;;;;4937332;28;20189;-74
2020/12/22 11:28:41;;;;;;;11.03;6.00;;;;;;;;;;4937613;28;20263;-75
2020/12/22 11:31:07;;;;;;;11.03;4.67;;;;;;;;;;4938004;28;20246;-74
2020/12/22 11:33:32;;;;;;;12.47;5.23;;;;;;;;;;4937365;28;20208;-74
2020/12/22 11:35:57;;;;;;;13.33;4.87;;;;;;;;;;4936478;28;20201;-74
2020/12/22 11:38:22;;;;;;;11.55;5.57;;;;;;;;;;4937804;28;20196;-74
2020/12/22 11:40:47;;;;;;;16.60;5.87;;;;;;;;;;4935605;28;20192;-74
2020/12/22 11:43:13;;;;;;;14.27;5.57;;;;;;;;;;4935085;28;20908;-74
2020/12/22 11:45:38;;;;;;;12.67;4.83;;;;;;;;;;4936990;28;20185;-74
2020/12/22 11:48:03;;;;;;;11.17;4.90;;;;;;;;;;4943445;28;20272;-74
2020/12/22 11:50:28;;;;;;;15.33;5.93;;;;;;;;;;4950386;29;20185;-74
2020/12/22 11:52:53;;;;;;;8.57;4.73;;;;;;;;;;4939848;28;20335;-74
2020/12/22 11:55:19;;;;;;;13.50;4.63;;;;;;;;;;4936491;28;20834;-74
2020/12/22 11:57:45;;;;;;;9.63;4.63;;;;;;;;;;4935518;28;20264;-74
2020/12/22 12:00:10;;;;;;;8.03;3.27;;;;;;;;;;4939078;28;20181;-74
2020/12/22 12:02:35;;;;;;;9.10;3.53;;;;;;;;;;4935752;28;20268;-74
2020/12/22 12:05:01;;;;;;;7.70;3.83;;;;;;;;;;4933746;28;20193;-74
2020/12/22 12:07:26;;;;;;;9.17;4.00;;;;;;;;;;4937024;28;20208;-74
2020/12/22 12:09:51;;;;;;;8.50;3.77;;;;;;;;;;4934590;28;20177;-74
2020/12/22 12:12:16;;;;;;;12.37;3.80;;;;;;;;;;4932883;28;20208;-74
2020/12/22 12:14:41;;;;;;;12.50;3.70;;;;;;;;;;4936145;28;20205;-74
2020/12/22 12:17:06;;;;;;;10.40;4.10;;;;;;;;;;4934829;28;20181;-74
2020/12/22 12:19:32;;;;;;;8.93;3.00;;;;;;;;;;4953759;28;20182;-74
2020/12/22 12:21:58;;;;;;;8.70;3.20;;;;;;;;;;4937149;28;21055;-74
2020/12/22 12:24:23;;;;;;;6.50;3.60;;;;;;;;;;4938196;28;20524;-74
2020/12/22 12:26:48;;;;;;;9.38;2.90;;;;;;;;;;4936070;28;20185;-74
2020/12/22 12:29:13;;;;;;;7.03;2.77;;;;;;;;;;4935072;28;20193;-74
2020/12/22 12:31:39;;;;;;;9.57;3.10;;;;;;;;;;4936297;28;20199;-74
2020/12/22 12:34:04;;;;;;;8.60;2.80;;;;;;;;;;4935235;28;20201;-74
2020/12/22 12:36:30;;;;;;;5.90;2.40;;;;;;;;;;4948537;28;20694;-74
2020/12/22 12:38:55;;;;;;;7.85;3.63;;;;;;;;;;4948718;28;20211;-74
2020/12/22 12:41:20;;;;;;;6.00;2.60;;;;;;;;;;4931872;28;20670;-74
2020/12/22 12:43:46;;;;;;;6.63;2.40;;;;;;;;;;4949280;28;20205;-74
2020/12/22 12:46:11;;;;;;;10.40;3.55;;;;;;;;;;4933414;28;20276;-74
2020/12/22 12:48:37;;;;;;;5.28;2.92;;;;;;;;;;4935550;28;20188;-74
2020/12/22 12:51:05;;;;;;;8.40;2.50;;;;;;;;;;4933689;28;20666;-75
2020/12/22 12:53:31;;;;;;;8.20;2.77;;;;;;;;;;4934918;28;20223;-74
2020/12/22 12:55:56;;;;;;;6.40;2.83;;;;;;;;;;4935062;28;20208;-74
2020/12/22 12:58:21;;;;;;;8.40;2.63;;;;;;;;;;4930628;28;20790;-74
2020/12/22 13:00:46;;;;;;;9.23;2.80;;;;;;;;;;4935198;28;20196;-74
2020/12/22 13:03:11;;;;;;;6.13;3.33;;;;;;;;;;4934819;28;20271;-74
2020/12/22 13:05:37;;;;;;;7.10;2.70;;;;;;;;;;4931597;28;20185;-74
2020/12/22 13:08:02;;;;;;;9.23;3.00;;;;;;;;;;4940234;28;20200;-74
2020/12/22 13:10:27;;;;;;;7.60;2.97;;;;;;;;;;4933544;28;20247;-74
2020/12/22 13:12:52;;;;;;;10.30;2.95;;;;;;;;;;4930980;28;20606;-73
2020/12/22 13:15:18;;;;;;;7.90;2.53;;;;;;;;;;4933749;28;20245;-73
2020/12/22 13:17:43;;;;;;;6.17;2.53;;;;;;;;;;4937903;28;20181;-73
2020/12/22 13:20:08;;;;;;;5.37;2.40;;;;;;;;;;4933393;28;20185;-73
2020/12/22 13:22:33;;;;;;;9.97;2.60;;;;;;;;;;4934739;28;20201;-73
2020/12/22 13:24:58;;;;;;;11.20;3.67;;;;;;;;;;4932027;28;20544;-73
2020/12/22 13:27:24;;;;;;;7.80;2.77;;;;;;;;;;4933312;28;20239;-73
2020/12/22 13:29:49;;;;;;;9.73;2.67;;;;;;;;;;4933344;28;20185;-73
2020/12/22 13:32:14;;;;;;;9.93;3.10;;;;;;;;;;4935099;28;20205;-75
2020/12/22 13:34:39;;;;;;;6.63;2.97;;;;;;;;;;4932395;28;21908;-75
2020/12/22 13:37:04;;;;;;;5.50;2.80;;;;;;;;;;4932300;28;20192;-75
2020/12/22 13:39:30;;;;;;;8.53;3.17;;;;;;;;;;4934514;28;20240;-73
2020/12/22 13:41:55;;;;;;;5.83;2.63;;;;;;;;;;4935687;28;20256;-74
2020/12/22 13:44:20;;;;;;;5.90;3.00;;;;;;;;;;4933813;28;20208;-74
2020/12/22 13:46:45;;;;;;;7.13;3.10;;;;;;;;;;4934267;28;20200;-74
2020/12/22 13:49:11;;;;;;;7.10;2.27;;;;;;;;;;4937886;28;20194;-74
2020/12/22 13:51:36;;;;;;;7.57;2.83;;;;;;;;;;4938750;28;20650;-74
2020/12/22 13:54:01;;;;;;;8.37;2.40;;;;;;;;;;4938692;28;20209;-74
2020/12/22 13:56:26;;;;;;;6.30;2.77;;;;;;;;;;4940237;28;20220;-74
2020/12/22 13:58:52;;;;;;;6.57;2.63;;;;;;;;;;4937179;28;20193;-75
2020/12/22 14:01:17;;;;;;;7.83;3.67;;;;;;;;;;4934793;28;20436;-75
2020/12/22 14:03:42;;;;;;;7.40;2.77;;;;;;;;;;4952274;28;20657;-75
2020/12/22 14:06:07;;;;;;;6.87;2.90;;;;;;;;;;4940849;28;20196;-75
2020/12/22 14:08:33;;;;;;;7.37;5.57;;;;;;;;;;4955470;28;20204;-75
2020/12/22 14:10:58;;;;;;;4.23;3.00;;;;;;;;;;4938493;28;20225;-75
2020/12/22 14:13:23;;;;;;;8.50;3.97;;;;;;;;;;4936052;28;20219;-75
2020/12/22 14:15:48;;;;;;;10.30;3.20;;;;;;;;;;4936786;28;20212;-74
2020/12/22 14:18:14;;;;;;;6.57;3.10;;;;;;;;;;4942215;28;20188;-74
2020/12/22 14:20:40;;;;;;;8.03;2.73;;;;;;;;;;4937290;28;20188;-74
2020/12/22 14:23:05;;;;;;;5.10;2.77;;;;;;;;;;4940880;28;20242;-74
2020/12/22 14:25:30;;;;;;;4.70;2.53;;;;;;;;;;4938460;28;20189;-75
2020/12/22 14:27:55;;;;;;;6.37;2.83;;;;;;;;;;4937829;28;20215;-74
2020/12/22 14:30:21;;;;;;;7.43;3.00;;;;;;;;;;4936488;28;20181;-74